sensor_id;sensor_type;location;lat;lon;timestamp;temperature;humidity
39493;DHT22;25176;51.060;3.720;2022-09-24T00:00:47;15.60;99.90
39493;DHT22;25176;51.060;3.720;2022-09-24T00:03:15;15.50;99.90
39493;DHT22;25176;51.060;3.720;2022-09-24T00:05:41;15.50;99.90
39493;DHT22;25176;51.060;3.720;2022-09-24T00:08:07;15.50;99.90
39493;DHT22;25176;51.060;3.720;2022-09-24T00:10:36;15.50;99.90
39493;DHT22;25176;51.060;3.720;2022-09-24T00:13:03;15.50;99.90
39493;DHT22;25176;51.060;3.720;2022-09-24T00:15:29;15.50;99.90
39493;DHT22;25176;51.060;3.720;2022-09-24T00:17:55;15.60;99.90
39493;DHT22;25176;51.060;3.720;2022-09-24T00:20:21;15.60;99.90
39493;DHT22;25176;51.060;3.720;2022-09-24T00:22:46;15.60;99.90
39493;DHT22;25176;51.060;3.720;2022-09-24T00:25:12;15.60;99.90
39493;DHT22;25176;51.060;3.720;2022-09-24T00:27:56;15.50;99.90
39493;DHT22;25176;51.060;3.720;2022-09-24T00:30:22;15.60;99.90
39493;DHT22;25176;51.060;3.720;2022-09-24T00:32:47;15.70;99.90
39493;DHT22;25176;51.060;3.720;2022-09-24T00:35:13;15.60;99.90
39493;DHT22;25176;51.060;3.720;2022-09-24T00:37:38;15.60;99.90
39493;DHT22;25176;51.060;3.720;2022-09-24T00:40:04;15.50;99.90
39493;DHT22;25176;51.060;3.720;2022-09-24T00:42:30;15.40;99.90
39493;DHT22;25176;51.060;3.720;2022-09-24T00:44:56;15.40;99.90
39493;DHT22;25176;51.060;3.720;2022-09-24T00:47:27;15.40;99.90
39493;DHT22;25176;51.060;3.720;2022-09-24T00:52:30;15.30;99.90
39493;DHT22;25176;51.060;3.720;2022-09-24T00:54:56;15.30;99.90
39493;DHT22;25176;51.060;3.720;2022-09-24T00:57:21;15.30;99.90
39493;DHT22;25176;51.060;3.720;2022-09-24T00:59:48;15.20;99.90
39493;DHT22;25176;51.060;3.720;2022-09-24T01:02:14;15.20;99.90
39493;DHT22;25176;51.060;3.720;2022-09-24T01:04:39;15.20;99.90
39493;DHT22;25176;51.060;3.720;2022-09-24T01:07:05;15.30;99.90
39493;DHT22;25176;51.060;3.720;2022-09-24T01:09:30;15.20;99.90
39493;DHT22;25176;51.060;3.720;2022-09-24T01:21:51;15.10;99.90
39493;DHT22;25176;51.060;3.720;2022-09-24T01:24:40;15.10;99.90
39493;DHT22;25176;51.060;3.720;2022-09-24T01:27:21;15.00;99.90
39493;DHT22;25176;51.060;3.720;2022-09-24T01:32:34;15.10;99.90
39493;DHT22;25176;51.060;3.720;2022-09-24T01:35:05;15.10;99.90
39493;DHT22;25176;51.060;3.720;2022-09-24T01:37:32;15.20;99.90
39493;DHT22;25176;51.060;3.720;2022-09-24T01:39:59;15.20;99.90
39493;DHT22;25176;51.060;3.720;2022-09-24T01:42:26;15.20;99.90
39493;DHT22;25176;51.060;3.720;2022-09-24T01:44:53;15.20;99.90
39493;DHT22;25176;51.060;3.720;2022-09-24T01:47:20;15.20;99.90
39493;DHT22;25176;51.060;3.720;2022-09-24T01:49:47;15.10;99.90
39493;DHT22;25176;51.060;3.720;2022-09-24T01:52:17;15.20;99.90
39493;DHT22;25176;51.060;3.720;2022-09-24T01:54:43;15.30;99.90
39493;DHT22;25176;51.060;3.720;2022-09-24T01:57:22;15.30;99.90
39493;DHT22;25176;51.060;3.720;2022-09-24T01:59:50;15.40;99.90
39493;DHT22;25176;51.060;3.720;2022-09-24T02:05:08;15.10;99.90
39493;DHT22;25176;51.060;3.720;2022-09-24T02:07:38;15.00;99.90
39493;DHT22;25176;51.060;3.720;2022-09-24T02:10:16;15.00;99.90
39493;DHT22;25176;51.060;3.720;2022-09-24T02:12:43;15.00;99.90
39493;DHT22;25176;51.060;3.720;2022-09-24T02:15:14;15.00;99.90
39493;DHT22;25176;51.060;3.720;2022-09-24T02:17:42;15.10;99.90
39493;DHT22;25176;51.060;3.720;2022-09-24T02:20:11;15.10;99.90
39493;DHT22;25176;51.060;3.720;2022-09-24T02:22:37;15.20;99.90
39493;DHT22;25176;51.060;3.720;2022-09-24T02:25:03;15.20;99.90
39493;DHT22;25176;51.060;3.720;2022-09-24T02:27:30;15.10;99.90
39493;DHT22;25176;51.060;3.720;2022-09-24T02:29:56;15.00;99.90
39493;DHT22;25176;51.060;3.720;2022-09-24T02:32:22;15.00;99.90
39493;DHT22;25176;51.060;3.720;2022-09-24T02:34:50;15.00;99.90
39493;DHT22;25176;51.060;3.720;2022-09-24T02:37:16;15.00;99.90
39493;DHT22;25176;51.060;3.720;2022-09-24T02:39:42;15.00;99.90
39493;DHT22;25176;51.060;3.720;2022-09-24T02:42:08;15.00;99.90
39493;DHT22;25176;51.060;3.720;2022-09-24T02:44:35;14.90;99.90
39493;DHT22;25176;51.060;3.720;2022-09-24T02:47:00;14.90;99.90
39493;DHT22;25176;51.060;3.720;2022-09-24T02:49:26;14.90;99.90
39493;DHT22;25176;51.060;3.720;2022-09-24T02:51:52;14.90;99.90
39493;DHT22;25176;51.060;3.720;2022-09-24T02:54:17;14.90;99.90
39493;DHT22;25176;51.060;3.720;2022-09-24T02:56:43;15.00;99.90
39493;DHT22;25176;51.060;3.720;2022-09-24T02:59:08;15.10;99.90
39493;DHT22;25176;51.060;3.720;2022-09-24T03:01:34;15.10;99.90
39493;DHT22;25176;51.060;3.720;2022-09-24T03:03:59;15.20;99.90
39493;DHT22;25176;51.060;3.720;2022-09-24T03:06:25;15.20;99.90
39493;DHT22;25176;51.060;3.720;2022-09-24T03:08:51;15.10;99.90
39493;DHT22;25176;51.060;3.720;2022-09-24T03:11:18;15.10;99.90
39493;DHT22;25176;51.060;3.720;2022-09-24T03:13:43;15.10;99.90
39493;DHT22;25176;51.060;3.720;2022-09-24T03:16:09;15.10;99.90
39493;DHT22;25176;51.060;3.720;2022-09-24T03:18:34;15.10;99.90
39493;DHT22;25176;51.060;3.720;2022-09-24T03:21:01;15.10;99.90
39493;DHT22;25176;51.060;3.720;2022-09-24T03:23:28;15.00;99.90
39493;DHT22;25176;51.060;3.720;2022-09-24T03:25:53;14.90;99.90
39493;DHT22;25176;51.060;3.720;2022-09-24T03:28:19;14.80;99.90
39493;DHT22;25176;51.060;3.720;2022-09-24T03:30:45;14.80;99.90
39493;DHT22;25176;51.060;3.720;2022-09-24T03:33:33;14.80;99.90
39493;DHT22;25176;51.060;3.720;2022-09-24T03:36:20;14.90;99.90
39493;DHT22;25176;51.060;3.720;2022-09-24T03:38:45;14.90;99.90
39493;DHT22;25176;51.060;3.720;2022-09-24T03:41:11;14.80;99.90
39493;DHT22;25176;51.060;3.720;2022-09-24T03:43:37;14.80;99.90
39493;DHT22;25176;51.060;3.720;2022-09-24T03:46:03;14.80;99.90
39493;DHT22;25176;51.060;3.720;2022-09-24T03:48:31;14.80;99.90
39493;DHT22;25176;51.060;3.720;2022-09-24T03:51:01;14.80;99.90
39493;DHT22;25176;51.060;3.720;2022-09-24T03:53:27;14.70;99.90
39493;DHT22;25176;51.060;3.720;2022-09-24T03:55:53;14.80;99.90
39493;DHT22;25176;51.060;3.720;2022-09-24T03:58:20;14.80;99.90
39493;DHT22;25176;51.060;3.720;2022-09-24T04:00:45;14.80;99.90
39493;DHT22;25176;51.060;3.720;2022-09-24T04:03:11;14.90;99.90
39493;DHT22;25176;51.060;3.720;2022-09-24T04:05:36;14.90;99.90
39493;DHT22;25176;51.060;3.720;2022-09-24T04:08:02;14.90;99.90
39493;DHT22;25176;51.060;3.720;2022-09-24T04:10:29;14.90;99.90
39493;DHT22;25176;51.060;3.720;2022-09-24T04:12:55;14.80;99.90
39493;DHT22;25176;51.060;3.720;2022-09-24T04:15:20;14.80;99.90
39493;DHT22;25176;51.060;3.720;2022-09-24T04:20:16;14.90;99.90
39493;DHT22;25176;51.060;3.720;2022-09-24T04:22:41;14.80;99.90
39493;DHT22;25176;51.060;3.720;2022-09-24T04:25:07;14.70;99.90
39493;DHT22;25176;51.060;3.720;2022-09-24T04:27:32;14.70;99.90
39493;DHT22;25176;51.060;3.720;2022-09-24T04:30:00;14.70;99.90
39493;DHT22;25176;51.060;3.720;2022-09-24T04:32:26;14.70;99.90
39493;DHT22;25176;51.060;3.720;2022-09-24T04:34:51;14.80;99.90
39493;DHT22;25176;51.060;3.720;2022-09-24T04:37:17;14.70;99.90
39493;DHT22;25176;51.060;3.720;2022-09-24T04:39:42;14.80;99.90
39493;DHT22;25176;51.060;3.720;2022-09-24T04:42:08;14.90;99.90
39493;DHT22;25176;51.060;3.720;2022-09-24T04:44:33;14.90;99.90
39493;DHT22;25176;51.060;3.720;2022-09-24T04:46:59;14.80;99.90
39493;DHT22;25176;51.060;3.720;2022-09-24T04:49:26;14.80;99.90
39493;DHT22;25176;51.060;3.720;2022-09-24T04:51:53;14.80;99.90
39493;DHT22;25176;51.060;3.720;2022-09-24T04:54:23;14.70;99.90
39493;DHT22;25176;51.060;3.720;2022-09-24T04:56:48;14.70;99.90
39493;DHT22;25176;51.060;3.720;2022-09-24T04:59:14;14.70;99.90
39493;DHT22;25176;51.060;3.720;2022-09-24T05:01:39;14.80;99.90
39493;DHT22;25176;51.060;3.720;2022-09-24T05:04:05;14.90;99.90
39493;DHT22;25176;51.060;3.720;2022-09-24T05:06:31;14.90;99.90
39493;DHT22;25176;51.060;3.720;2022-09-24T05:08:57;14.90;99.90
39493;DHT22;25176;51.060;3.720;2022-09-24T05:11:22;14.90;99.90
39493;DHT22;25176;51.060;3.720;2022-09-24T05:13:48;14.90;99.90
39493;DHT22;25176;51.060;3.720;2022-09-24T05:16:13;14.90;99.90
39493;DHT22;25176;51.060;3.720;2022-09-24T05:18:39;14.90;99.90
39493;DHT22;25176;51.060;3.720;2022-09-24T05:21:05;15.00;99.90
39493;DHT22;25176;51.060;3.720;2022-09-24T05:23:30;15.00;99.90
39493;DHT22;25176;51.060;3.720;2022-09-24T05:25:56;15.10;99.90
39493;DHT22;25176;51.060;3.720;2022-09-24T05:28:40;15.10;99.90
39493;DHT22;25176;51.060;3.720;2022-09-24T05:31:07;15.10;99.90
39493;DHT22;25176;51.060;3.720;2022-09-24T05:33:33;15.10;99.90
39493;DHT22;25176;51.060;3.720;2022-09-24T05:35:58;15.10;99.90
39493;DHT22;25176;51.060;3.720;2022-09-24T05:38:24;15.10;99.90
39493;DHT22;25176;51.060;3.720;2022-09-24T05:40:49;15.00;99.90
39493;DHT22;25176;51.060;3.720;2022-09-24T05:43:15;15.10;99.90
39493;DHT22;25176;51.060;3.720;2022-09-24T05:45:43;15.00;99.90
39493;DHT22;25176;51.060;3.720;2022-09-24T05:48:08;15.10;99.90
39493;DHT22;25176;51.060;3.720;2022-09-24T05:50:34;15.10;99.90
39493;DHT22;25176;51.060;3.720;2022-09-24T05:53:00;15.10;99.90
39493;DHT22;25176;51.060;3.720;2022-09-24T05:55:26;15.10;99.90
39493;DHT22;25176;51.060;3.720;2022-09-24T05:57:51;15.10;99.90
39493;DHT22;25176;51.060;3.720;2022-09-24T06:00:17;15.00;99.90
39493;DHT22;25176;51.060;3.720;2022-09-24T06:02:42;15.00;99.90
39493;DHT22;25176;51.060;3.720;2022-09-24T06:05:08;15.00;99.90
39493;DHT22;25176;51.060;3.720;2022-09-24T06:07:34;15.10;99.90
39493;DHT22;25176;51.060;3.720;2022-09-24T06:09:59;15.10;99.90
39493;DHT22;25176;51.060;3.720;2022-09-24T06:12:25;15.10;99.90
39493;DHT22;25176;51.060;3.720;2022-09-24T06:14:51;15.10;99.90
39493;DHT22;25176;51.060;3.720;2022-09-24T06:17:18;15.10;99.90
39493;DHT22;25176;51.060;3.720;2022-09-24T06:19:44;15.30;99.90
39493;DHT22;25176;51.060;3.720;2022-09-24T06:22:10;15.40;99.90
39493;DHT22;25176;51.060;3.720;2022-09-24T06:24:36;15.30;99.90
39493;DHT22;25176;51.060;3.720;2022-09-24T06:27:01;15.30;99.90
39493;DHT22;25176;51.060;3.720;2022-09-24T06:29:27;15.30;99.90
39493;DHT22;25176;51.060;3.720;2022-09-24T06:31:52;15.30;99.90
39493;DHT22;25176;51.060;3.720;2022-09-24T06:34:18;15.40;99.90
39493;DHT22;25176;51.060;3.720;2022-09-24T06:36:43;15.60;99.90
39493;DHT22;25176;51.060;3.720;2022-09-24T06:39:09;15.60;99.90
39493;DHT22;25176;51.060;3.720;2022-09-24T06:41:34;15.70;99.90
39493;DHT22;25176;51.060;3.720;2022-09-24T06:44:00;15.60;99.90
39493;DHT22;25176;51.060;3.720;2022-09-24T06:46:25;15.60;99.90
39493;DHT22;25176;51.060;3.720;2022-09-24T06:48:51;15.60;99.90
39493;DHT22;25176;51.060;3.720;2022-09-24T06:51:19;15.70;99.90
39493;DHT22;25176;51.060;3.720;2022-09-24T06:53:45;15.80;99.90
39493;DHT22;25176;51.060;3.720;2022-09-24T06:56:10;15.90;99.90
39493;DHT22;25176;51.060;3.720;2022-09-24T06:58:35;15.80;99.90
39493;DHT22;25176;51.060;3.720;2022-09-24T07:01:01;15.70;99.90
39493;DHT22;25176;51.060;3.720;2022-09-24T07:03:28;15.90;99.90
39493;DHT22;25176;51.060;3.720;2022-09-24T07:05:53;15.90;99.90
39493;DHT22;25176;51.060;3.720;2022-09-24T07:08:19;15.90;99.90
39493;DHT22;25176;51.060;3.720;2022-09-24T07:10:45;15.90;99.90
39493;DHT22;25176;51.060;3.720;2022-09-24T07:13:13;16.10;99.90
39493;DHT22;25176;51.060;3.720;2022-09-24T07:15:39;16.00;99.90
39493;DHT22;25176;51.060;3.720;2022-09-24T07:18:05;16.20;99.90
39493;DHT22;25176;51.060;3.720;2022-09-24T07:20:31;16.20;99.90
39493;DHT22;25176;51.060;3.720;2022-09-24T07:23:00;16.40;99.90
39493;DHT22;25176;51.060;3.720;2022-09-24T07:25:26;16.30;99.90
39493;DHT22;25176;51.060;3.720;2022-09-24T07:27:51;16.20;99.90
39493;DHT22;25176;51.060;3.720;2022-09-24T07:30:17;16.30;99.90
39493;DHT22;25176;51.060;3.720;2022-09-24T07:32:42;16.40;99.90
39493;DHT22;25176;51.060;3.720;2022-09-24T07:35:08;16.40;99.90
39493;DHT22;25176;51.060;3.720;2022-09-24T07:37:33;16.30;99.90
39493;DHT22;25176;51.060;3.720;2022-09-24T07:39:59;16.30;99.90
39493;DHT22;25176;51.060;3.720;2022-09-24T07:42:25;16.20;99.90
39493;DHT22;25176;51.060;3.720;2022-09-24T07:44:50;16.10;99.90
39493;DHT22;25176;51.060;3.720;2022-09-24T07:47:16;16.10;99.90
39493;DHT22;25176;51.060;3.720;2022-09-24T07:49:42;16.30;99.90
39493;DHT22;25176;51.060;3.720;2022-09-24T07:52:09;16.30;99.90
39493;DHT22;25176;51.060;3.720;2022-09-24T07:54:34;16.40;99.90
39493;DHT22;25176;51.060;3.720;2022-09-24T07:57:00;16.40;99.90
39493;DHT22;25176;51.060;3.720;2022-09-24T07:59:27;16.60;99.90
39493;DHT22;25176;51.060;3.720;2022-09-24T08:01:52;16.40;99.90
39493;DHT22;25176;51.060;3.720;2022-09-24T08:04:18;16.40;99.90
39493;DHT22;25176;51.060;3.720;2022-09-24T08:06:43;16.30;99.90
39493;DHT22;25176;51.060;3.720;2022-09-24T08:09:09;16.20;99.90
39493;DHT22;25176;51.060;3.720;2022-09-24T08:11:34;16.20;99.90
39493;DHT22;25176;51.060;3.720;2022-09-24T08:14:00;16.30;99.90
39493;DHT22;25176;51.060;3.720;2022-09-24T08:16:25;16.20;99.90
39493;DHT22;25176;51.060;3.720;2022-09-24T08:18:51;16.10;99.90
39493;DHT22;25176;51.060;3.720;2022-09-24T08:21:17;16.10;99.90
39493;DHT22;25176;51.060;3.720;2022-09-24T08:23:43;16.20;99.90
39493;DHT22;25176;51.060;3.720;2022-09-24T08:26:09;16.20;99.90
39493;DHT22;25176;51.060;3.720;2022-09-24T08:28:35;16.40;99.90
39493;DHT22;25176;51.060;3.720;2022-09-24T08:31:02;16.90;99.90
39493;DHT22;25176;51.060;3.720;2022-09-24T08:33:28;17.30;99.90
39493;DHT22;25176;51.060;3.720;2022-09-24T08:35:55;17.40;99.90
39493;DHT22;25176;51.060;3.720;2022-09-24T08:38:23;17.70;99.90
39493;DHT22;25176;51.060;3.720;2022-09-24T08:44:11;17.60;99.90
39493;DHT22;25176;51.060;3.720;2022-09-24T08:49:18;17.50;99.90
39493;DHT22;25176;51.060;3.720;2022-09-24T08:51:48;17.50;99.90
39493;DHT22;25176;51.060;3.720;2022-09-24T08:54:15;17.20;99.90
39493;DHT22;25176;51.060;3.720;2022-09-24T08:56:42;17.00;99.90
39493;DHT22;25176;51.060;3.720;2022-09-24T08:59:13;16.80;99.90
39493;DHT22;25176;51.060;3.720;2022-09-24T09:04:27;16.80;99.90
39493;DHT22;25176;51.060;3.720;2022-09-24T09:06:59;16.90;99.90
39493;DHT22;25176;51.060;3.720;2022-09-24T09:12:03;17.10;99.90
39493;DHT22;25176;51.060;3.720;2022-09-24T09:14:44;17.00;99.90
39493;DHT22;25176;51.060;3.720;2022-09-24T09:17:14;17.20;99.90
39493;DHT22;25176;51.060;3.720;2022-09-24T09:19:42;17.30;99.90
39493;DHT22;25176;51.060;3.720;2022-09-24T09:22:15;17.50;99.90
39493;DHT22;25176;51.060;3.720;2022-09-24T09:24:46;17.40;99.90
39493;DHT22;25176;51.060;3.720;2022-09-24T09:27:13;17.40;99.90
39493;DHT22;25176;51.060;3.720;2022-09-24T09:29:42;17.50;99.90
39493;DHT22;25176;51.060;3.720;2022-09-24T09:37:26;17.30;99.90
39493;DHT22;25176;51.060;3.720;2022-09-24T09:42:27;17.10;99.90
39493;DHT22;25176;51.060;3.720;2022-09-24T09:44:53;16.90;99.90
39493;DHT22;25176;51.060;3.720;2022-09-24T09:49:44;16.30;99.90
39493;DHT22;25176;51.060;3.720;2022-09-24T09:52:12;16.10;99.90
39493;DHT22;25176;51.060;3.720;2022-09-24T09:54:39;16.20;99.90
39493;DHT22;25176;51.060;3.720;2022-09-24T09:57:06;16.20;99.90
39493;DHT22;25176;51.060;3.720;2022-09-24T09:59:36;16.30;99.90
39493;DHT22;25176;51.060;3.720;2022-09-24T10:02:02;16.10;99.90
39493;DHT22;25176;51.060;3.720;2022-09-24T10:07:09;16.10;99.90
39493;DHT22;25176;51.060;3.720;2022-09-24T10:09:35;16.30;99.90
39493;DHT22;25176;51.060;3.720;2022-09-24T10:12:20;16.50;99.90
39493;DHT22;25176;51.060;3.720;2022-09-24T10:17:41;16.40;99.90
39493;DHT22;25176;51.060;3.720;2022-09-24T10:20:09;16.20;99.90
39493;DHT22;25176;51.060;3.720;2022-09-24T10:22:42;16.40;99.90
39493;DHT22;25176;51.060;3.720;2022-09-24T10:25:20;16.40;99.90
39493;DHT22;25176;51.060;3.720;2022-09-24T10:27:48;16.30;99.90
39493;DHT22;25176;51.060;3.720;2022-09-24T10:30:15;16.40;99.90
39493;DHT22;25176;51.060;3.720;2022-09-24T10:33:02;16.30;99.90
39493;DHT22;25176;51.060;3.720;2022-09-24T10:35:29;16.40;99.90
39493;DHT22;25176;51.060;3.720;2022-09-24T10:37:57;16.30;99.90
39493;DHT22;25176;51.060;3.720;2022-09-24T10:40:26;16.20;99.90
39493;DHT22;25176;51.060;3.720;2022-09-24T10:42:55;16.20;99.90
39493;DHT22;25176;51.060;3.720;2022-09-24T10:45:21;16.30;99.90
39493;DHT22;25176;51.060;3.720;2022-09-24T10:47:51;16.20;99.90
39493;DHT22;25176;51.060;3.720;2022-09-24T10:50:22;16.20;99.90
39493;DHT22;25176;51.060;3.720;2022-09-24T10:52:55;16.30;99.90
39493;DHT22;25176;51.060;3.720;2022-09-24T11:00:17;16.20;99.90
39493;DHT22;25176;51.060;3.720;2022-09-24T11:05:17;16.20;99.90
39493;DHT22;25176;51.060;3.720;2022-09-24T11:13:13;16.20;99.90
39493;DHT22;25176;51.060;3.720;2022-09-24T11:16:08;16.20;99.90
39493;DHT22;25176;51.060;3.720;2022-09-24T11:23:42;16.20;99.90
39493;DHT22;25176;51.060;3.720;2022-09-24T11:39:17;16.20;99.90
39493;DHT22;25176;51.060;3.720;2022-09-24T11:52:44;16.70;99.90
39493;DHT22;25176;51.060;3.720;2022-09-24T11:57:55;16.70;99.90
39493;DHT22;25176;51.060;3.720;2022-09-24T12:00:24;16.80;99.90
39493;DHT22;25176;51.060;3.720;2022-09-24T12:03:00;16.90;99.90
39493;DHT22;25176;51.060;3.720;2022-09-24T12:12:59;17.00;99.90
39493;DHT22;25176;51.060;3.720;2022-09-24T12:15:28;16.90;99.90
39493;DHT22;25176;51.060;3.720;2022-09-24T12:17:56;16.90;99.90
39493;DHT22;25176;51.060;3.720;2022-09-24T12:20:29;16.90;99.90
39493;DHT22;25176;51.060;3.720;2022-09-24T12:22:59;17.00;99.90
39493;DHT22;25176;51.060;3.720;2022-09-24T12:25:36;17.00;99.90
39493;DHT22;25176;51.060;3.720;2022-09-24T12:28:03;16.90;99.90
39493;DHT22;25176;51.060;3.720;2022-09-24T12:30:39;16.90;99.90
39493;DHT22;25176;51.060;3.720;2022-09-24T12:33:38;16.80;99.90
39493;DHT22;25176;51.060;3.720;2022-09-24T12:41:05;16.80;99.90
39493;DHT22;25176;51.060;3.720;2022-09-24T12:46:03;16.50;99.90
39493;DHT22;25176;51.060;3.720;2022-09-24T12:48:29;16.50;99.90
39493;DHT22;25176;51.060;3.720;2022-09-24T12:50:59;16.50;99.90
39493;DHT22;25176;51.060;3.720;2022-09-24T12:53:32;16.40;99.90
39493;DHT22;25176;51.060;3.720;2022-09-24T12:55:59;16.40;99.90
39493;DHT22;25176;51.060;3.720;2022-09-24T12:58:26;16.50;99.90
39493;DHT22;25176;51.060;3.720;2022-09-24T13:01:03;16.40;99.90
39493;DHT22;25176;51.060;3.720;2022-09-24T13:03:30;16.40;99.90
39493;DHT22;25176;51.060;3.720;2022-09-24T13:05:57;16.50;99.90
39493;DHT22;25176;51.060;3.720;2022-09-24T13:08:45;16.50;99.90
39493;DHT22;25176;51.060;3.720;2022-09-24T13:14:03;16.30;99.90
39493;DHT22;25176;51.060;3.720;2022-09-24T13:16:30;16.30;99.90
39493;DHT22;25176;51.060;3.720;2022-09-24T13:19:00;16.30;99.90
39493;DHT22;25176;51.060;3.720;2022-09-24T13:21:27;16.30;99.90
39493;DHT22;25176;51.060;3.720;2022-09-24T13:23:53;16.30;99.90
39493;DHT22;25176;51.060;3.720;2022-09-24T13:36:37;16.40;99.90
39493;DHT22;25176;51.060;3.720;2022-09-24T13:39:12;16.40;99.90
39493;DHT22;25176;51.060;3.720;2022-09-24T13:44:10;16.50;99.90
39493;DHT22;25176;51.060;3.720;2022-09-24T13:46:38;16.50;99.90
39493;DHT22;25176;51.060;3.720;2022-09-24T13:49:07;16.50;99.90
39493;DHT22;25176;51.060;3.720;2022-09-24T13:51:35;16.40;99.90
39493;DHT22;25176;51.060;3.720;2022-09-24T13:54:07;16.40;99.90
39493;DHT22;25176;51.060;3.720;2022-09-24T13:56:36;16.40;99.90
39493;DHT22;25176;51.060;3.720;2022-09-24T13:59:05;16.40;99.90
39493;DHT22;25176;51.060;3.720;2022-09-24T14:01:34;16.50;99.90
39493;DHT22;25176;51.060;3.720;2022-09-24T14:04:04;16.60;99.90
39493;DHT22;25176;51.060;3.720;2022-09-24T14:06:37;16.60;99.90
39493;DHT22;25176;51.060;3.720;2022-09-24T14:11:51;16.80;99.90
39493;DHT22;25176;51.060;3.720;2022-09-24T14:14:18;16.80;99.90
39493;DHT22;25176;51.060;3.720;2022-09-24T14:16:45;16.90;99.90
39493;DHT22;25176;51.060;3.720;2022-09-24T14:19:11;16.80;99.90
39493;DHT22;25176;51.060;3.720;2022-09-24T14:21:53;16.60;99.90
39493;DHT22;25176;51.060;3.720;2022-09-24T14:24:22;16.70;99.90
39493;DHT22;25176;51.060;3.720;2022-09-24T14:26:50;16.60;99.90
39493;DHT22;25176;51.060;3.720;2022-09-24T14:29:18;16.70;99.90
39493;DHT22;25176;51.060;3.720;2022-09-24T14:31:45;16.60;99.90
39493;DHT22;25176;51.060;3.720;2022-09-24T14:36:45;16.80;99.90
39493;DHT22;25176;51.060;3.720;2022-09-24T14:39:11;16.80;99.90
39493;DHT22;25176;51.060;3.720;2022-09-24T14:41:37;16.70;99.90
39493;DHT22;25176;51.060;3.720;2022-09-24T14:44:07;16.60;99.90
39493;DHT22;25176;51.060;3.720;2022-09-24T14:46:37;16.60;99.90
39493;DHT22;25176;51.060;3.720;2022-09-24T14:51:56;16.50;99.90
39493;DHT22;25176;51.060;3.720;2022-09-24T14:54:32;16.50;99.90
39493;DHT22;25176;51.060;3.720;2022-09-24T14:57:11;16.60;99.90
39493;DHT22;25176;51.060;3.720;2022-09-24T14:59:47;16.70;99.90
39493;DHT22;25176;51.060;3.720;2022-09-24T15:04:45;16.70;99.90
39493;DHT22;25176;51.060;3.720;2022-09-24T15:07:20;16.80;99.90
39493;DHT22;25176;51.060;3.720;2022-09-24T15:09:47;16.80;99.90
39493;DHT22;25176;51.060;3.720;2022-09-24T15:12:24;16.80;99.90
39493;DHT22;25176;51.060;3.720;2022-09-24T15:14:58;16.90;99.90
39493;DHT22;25176;51.060;3.720;2022-09-24T15:17:28;16.70;99.90
39493;DHT22;25176;51.060;3.720;2022-09-24T15:19:54;16.70;99.90
39493;DHT22;25176;51.060;3.720;2022-09-24T15:22:21;16.70;99.90
39493;DHT22;25176;51.060;3.720;2022-09-24T15:24:47;16.70;99.90
39493;DHT22;25176;51.060;3.720;2022-09-24T15:29:58;16.70;99.90
39493;DHT22;25176;51.060;3.720;2022-09-24T15:32:24;16.70;99.90
39493;DHT22;25176;51.060;3.720;2022-09-24T15:34:50;16.70;99.90
39493;DHT22;25176;51.060;3.720;2022-09-24T15:37:20;16.70;99.90
39493;DHT22;25176;51.060;3.720;2022-09-24T15:39:46;16.70;99.90
39493;DHT22;25176;51.060;3.720;2022-09-24T15:42:18;16.70;99.90
39493;DHT22;25176;51.060;3.720;2022-09-24T15:44:45;16.80;99.90
39493;DHT22;25176;51.060;3.720;2022-09-24T15:47:10;16.90;99.90
39493;DHT22;25176;51.060;3.720;2022-09-24T15:49:36;16.90;99.90
39493;DHT22;25176;51.060;3.720;2022-09-24T15:52:06;16.90;99.90
39493;DHT22;25176;51.060;3.720;2022-09-24T15:54:32;16.80;99.90
39493;DHT22;25176;51.060;3.720;2022-09-24T15:56:57;16.80;99.90
39493;DHT22;25176;51.060;3.720;2022-09-24T15:59:25;16.70;99.90
39493;DHT22;25176;51.060;3.720;2022-09-24T16:01:52;16.60;99.90
39493;DHT22;25176;51.060;3.720;2022-09-24T16:04:18;16.60;99.90
39493;DHT22;25176;51.060;3.720;2022-09-24T16:06:44;16.50;99.90
39493;DHT22;25176;51.060;3.720;2022-09-24T16:09:10;16.60;99.90
39493;DHT22;25176;51.060;3.720;2022-09-24T16:11:35;16.60;99.90
39493;DHT22;25176;51.060;3.720;2022-09-24T16:14:00;16.60;99.90
39493;DHT22;25176;51.060;3.720;2022-09-24T16:16:26;16.60;99.90
39493;DHT22;25176;51.060;3.720;2022-09-24T16:18:52;16.60;99.90
39493;DHT22;25176;51.060;3.720;2022-09-24T16:21:17;16.70;99.90
39493;DHT22;25176;51.060;3.720;2022-09-24T16:23:43;16.60;99.90
39493;DHT22;25176;51.060;3.720;2022-09-24T16:26:08;16.60;99.90
39493;DHT22;25176;51.060;3.720;2022-09-24T16:28:34;16.70;99.90
39493;DHT22;25176;51.060;3.720;2022-09-24T16:31:04;16.60;99.90
39493;DHT22;25176;51.060;3.720;2022-09-24T16:33:30;16.60;99.90
39493;DHT22;25176;51.060;3.720;2022-09-24T16:35:56;16.60;99.90
39493;DHT22;25176;51.060;3.720;2022-09-24T16:38:28;16.60;99.90
39493;DHT22;25176;51.060;3.720;2022-09-24T16:40:57;16.70;99.90
39493;DHT22;25176;51.060;3.720;2022-09-24T16:43:23;16.70;99.90
39493;DHT22;25176;51.060;3.720;2022-09-24T16:45:48;16.50;99.90
39493;DHT22;25176;51.060;3.720;2022-09-24T16:48:14;16.30;99.90
39493;DHT22;25176;51.060;3.720;2022-09-24T16:50:39;16.20;99.90
39493;DHT22;25176;51.060;3.720;2022-09-24T16:53:05;16.20;99.90
39493;DHT22;25176;51.060;3.720;2022-09-24T16:55:31;16.20;99.90
39493;DHT22;25176;51.060;3.720;2022-09-24T16:57:57;16.20;99.90
39493;DHT22;25176;51.060;3.720;2022-09-24T17:00:22;16.10;99.90
39493;DHT22;25176;51.060;3.720;2022-09-24T17:02:48;16.10;99.90
39493;DHT22;25176;51.060;3.720;2022-09-24T17:05:13;16.00;99.90
39493;DHT22;25176;51.060;3.720;2022-09-24T17:07:39;16.00;99.90
39493;DHT22;25176;51.060;3.720;2022-09-24T17:10:04;16.10;99.90
39493;DHT22;25176;51.060;3.720;2022-09-24T17:12:43;16.00;99.90
39493;DHT22;25176;51.060;3.720;2022-09-24T17:15:10;15.90;99.90
39493;DHT22;25176;51.060;3.720;2022-09-24T17:17:37;15.90;99.90
39493;DHT22;25176;51.060;3.720;2022-09-24T17:20:02;15.90;99.90
39493;DHT22;25176;51.060;3.720;2022-09-24T17:22:28;15.80;99.90
39493;DHT22;25176;51.060;3.720;2022-09-24T17:24:53;15.80;99.90
39493;DHT22;25176;51.060;3.720;2022-09-24T17:27:19;15.80;99.90
39493;DHT22;25176;51.060;3.720;2022-09-24T17:29:44;15.80;99.90
39493;DHT22;25176;51.060;3.720;2022-09-24T17:32:10;15.90;99.90
39493;DHT22;25176;51.060;3.720;2022-09-24T17:34:35;15.80;99.90
39493;DHT22;25176;51.060;3.720;2022-09-24T17:37:01;15.80;99.90
39493;DHT22;25176;51.060;3.720;2022-09-24T17:39:26;15.70;99.90
39493;DHT22;25176;51.060;3.720;2022-09-24T17:41:52;15.60;99.90
39493;DHT22;25176;51.060;3.720;2022-09-24T17:44:17;15.60;99.90
39493;DHT22;25176;51.060;3.720;2022-09-24T17:46:43;15.60;99.90
39493;DHT22;25176;51.060;3.720;2022-09-24T17:49:09;15.50;99.90